createdAt,value
2022-10-30T00:06:11.164Z,4.20
2022-10-30T00:20:11.092Z,5.00
2022-10-30T00:34:11.245Z,3.80
2022-10-30T00:48:11.343Z,3.50
2022-10-30T01:02:11.470Z,2.90
2022-10-30T01:16:11.333Z,3.70
2022-10-30T01:30:11.314Z,4.00
2022-10-30T01:44:11.286Z,2.80
2022-10-30T01:58:11.324Z,3.35
2022-10-30T02:12:11.351Z,3.20
2022-10-30T02:26:11.323Z,3.20
2022-10-30T02:40:11.338Z,5.05
2022-10-30T02:54:11.367Z,3.35
2022-10-30T03:08:11.375Z,3.05
2022-10-30T03:22:11.391Z,2.50
2022-10-30T03:36:11.366Z,2.50
2022-10-30T03:50:11.383Z,3.00
2022-10-30T04:04:11.380Z,2.60
2022-10-30T04:18:11.409Z,3.40
2022-10-30T04:32:11.387Z,4.30
2022-10-30T04:46:11.404Z,2.60
2022-10-30T05:00:11.412Z,2.70
2022-10-30T05:14:11.531Z,3.70
2022-10-30T05:28:11.464Z,3.10
2022-10-30T05:43:11.484Z,3.10
2022-10-30T05:58:11.539Z,4.00
2022-10-30T06:13:11.514Z,7.30
2022-10-30T06:29:11.500Z,6.10
2022-10-30T06:44:11.516Z,5.10
2022-10-30T06:59:11.555Z,6.40
2022-10-30T07:15:11.568Z,6.70
2022-10-30T07:30:11.594Z,5.50
2022-10-30T07:46:11.602Z,7.20
2022-10-30T08:01:11.836Z,6.80
2022-10-30T08:16:11.744Z,5.80
2022-10-30T08:31:11.776Z,6.10
2022-10-30T08:46:11.778Z,26.70
2022-10-30T09:01:11.831Z,27.90
2022-10-30T09:16:11.807Z,34.50
2022-10-30T09:31:11.807Z,27.30
2022-10-30T09:46:11.828Z,22.00
2022-10-30T10:01:11.853Z,21.00
2022-10-30T10:16:11.822Z,16.30
2022-10-30T10:31:11.815Z,15.80
2022-10-30T10:46:11.827Z,14.90
2022-10-30T11:01:11.955Z,14.00
2022-10-30T11:16:11.849Z,12.70
2022-10-30T11:31:11.861Z,11.40
2022-10-30T11:46:11.886Z,15.00
2022-10-30T12:01:11.965Z,10.60
2022-10-30T12:16:12.045Z,8.40
2022-10-30T12:31:12.146Z,7.00
2022-10-30T12:46:12.224Z,7.30
2022-10-30T13:01:12.232Z,6.30
2022-10-30T13:16:12.139Z,5.70
2022-10-30T13:31:12.142Z,5.60
2022-10-30T13:46:12.138Z,4.30
2022-10-30T14:01:12.193Z,6.70
2022-10-30T14:16:12.145Z,6.60
2022-10-30T14:31:12.147Z,4.70
2022-10-30T14:46:12.158Z,4.90
2022-10-30T15:01:12.330Z,6.00
2022-10-30T15:16:12.273Z,4.40
2022-10-30T15:31:12.257Z,4.60
2022-10-30T15:47:12.287Z,6.00
2022-10-30T16:02:12.436Z,4.80
2022-10-30T16:18:12.306Z,4.20
2022-10-30T16:33:12.294Z,5.30
2022-10-30T16:47:12.349Z,5.20
2022-10-30T17:01:12.467Z,4.80
2022-10-30T17:15:12.326Z,6.80
2022-10-30T17:29:12.325Z,5.70
2022-10-30T17:44:12.347Z,6.20
2022-10-30T17:58:12.335Z,6.80
2022-10-30T18:12:12.535Z,6.70
2022-10-30T18:26:12.389Z,6.10
2022-10-30T18:40:12.394Z,6.90
2022-10-30T18:54:12.396Z,7.40
2022-10-30T19:08:12.462Z,7.90
2022-10-30T19:22:12.504Z,5.80
2022-10-30T19:36:12.478Z,5.10
2022-10-30T19:50:12.481Z,6.00
2022-10-30T20:04:12.483Z,6.20
2022-10-30T20:19:12.509Z,6.90
2022-10-30T20:33:12.490Z,6.50
2022-10-30T20:47:12.524Z,6.40
2022-10-30T21:01:12.525Z,7.60
2022-10-30T21:15:12.495Z,6.40
2022-10-30T21:29:12.515Z,9.50
2022-10-30T21:43:12.515Z,6.30
2022-10-30T21:57:12.572Z,7.20
2022-10-30T22:11:12.522Z,8.00
2022-10-30T22:25:12.520Z,6.60
2022-10-30T22:39:12.605Z,5.70
2022-10-30T22:53:12.525Z,5.50
2022-10-30T23:07:12.558Z,6.40
2022-10-30T23:21:12.560Z,6.90
2022-10-30T23:35:12.550Z,7.10
2022-10-30T23:49:12.546Z,6.30
